createdAt,value
2022-09-07T00:00:08.819Z,99747.31
2022-09-07T00:02:36.848Z,99738.88
2022-09-07T00:05:03.726Z,99737.59
2022-09-07T00:07:30.720Z,99724.03
2022-09-07T00:09:57.222Z,99734.03
2022-09-07T00:12:23.685Z,99733.00
2022-09-07T00:14:51.073Z,99728.81
2022-09-07T00:17:17.653Z,99732.53
2022-09-07T00:19:44.167Z,99740.00
2022-09-07T00:22:10.635Z,99730.84
2022-09-07T00:24:37.123Z,99725.81
2022-09-07T00:27:03.712Z,99719.09
2022-09-07T00:29:30.393Z,99718.47
2022-09-07T00:31:56.883Z,99723.94
2022-09-07T00:34:23.383Z,99716.00
2022-09-07T00:36:49.899Z,99724.13
2022-09-07T00:39:16.423Z,99708.25
2022-09-07T00:41:43.059Z,99705.94
2022-09-07T00:44:43.536Z,99702.38
2022-09-07T00:47:17.679Z,99701.06
2022-09-07T00:49:45.785Z,99700.25
2022-09-07T00:52:12.588Z,99702.28
2022-09-07T00:54:42.709Z,99712.28
2022-09-07T00:57:09.590Z,99708.38
2022-09-07T00:59:41.703Z,99708.72
2022-09-07T01:02:08.681Z,99703.69
2022-09-07T01:04:35.968Z,99693.88
2022-09-07T01:07:03.604Z,99697.16
2022-09-07T01:09:30.988Z,99696.91
2022-09-07T01:11:59.163Z,99698.34
2022-09-07T01:14:35.515Z,99698.00
2022-09-07T01:17:09.173Z,99702.75
2022-09-07T01:19:58.079Z,99694.63
2022-09-07T01:22:56.023Z,99684.19
2022-09-07T01:25:42.924Z,99689.78
2022-09-07T01:28:23.383Z,99690.63
2022-09-07T01:30:58.079Z,99692.03
2022-09-07T01:33:31.175Z,99693.25
2022-09-07T01:36:16.073Z,99699.03
2022-09-07T01:38:44.978Z,99690.72
2022-09-07T01:41:18.286Z,99689.50
2022-09-07T01:44:00.489Z,99680.38
2022-09-07T01:46:30.417Z,99683.25
2022-09-07T01:49:12.256Z,99677.00
2022-09-07T01:51:42.561Z,99682.22
2022-09-07T01:54:21.423Z,99682.88
2022-09-07T01:56:50.316Z,99688.78
2022-09-07T01:59:30.103Z,99691.47
2022-09-07T02:02:02.187Z,99692.69
2022-09-07T02:04:39.939Z,99704.53
2022-09-07T02:07:13.190Z,99698.75
2022-09-07T02:09:49.957Z,99699.97
2022-09-07T02:12:22.872Z,99700.81
2022-09-07T02:14:54.341Z,99695.03
2022-09-07T02:17:32.741Z,99700.44
2022-09-07T02:20:05.558Z,99684.56
2022-09-07T02:22:39.281Z,99691.19
2022-09-07T02:25:08.139Z,99682.22
2022-09-07T02:27:46.039Z,99679.16
2022-09-07T02:30:13.165Z,99674.66
2022-09-07T02:32:39.803Z,99673.25
2022-09-07T02:35:07.306Z,99674.38
2022-09-07T02:37:35.107Z,99671.47
2022-09-07T02:40:02.114Z,99667.00
2022-09-07T02:42:33.547Z,99657.38
2022-09-07T02:45:01.001Z,99664.00
2022-09-07T02:47:39.703Z,99662.31
2022-09-07T02:50:09.127Z,99655.59
2022-09-07T02:52:48.383Z,99657.28
2022-09-07T02:55:45.892Z,99652.69
2022-09-07T02:58:34.097Z,99653.91
2022-09-07T03:01:19.835Z,99657.66
2022-09-07T03:04:12.421Z,99658.03
2022-09-07T03:06:47.145Z,99656.94
2022-09-07T03:09:17.491Z,99655.44
2022-09-07T03:11:44.067Z,99653.09
2022-09-07T03:14:22.215Z,99656.19
2022-09-07T03:16:50.854Z,99663.47
2022-09-07T03:19:17.778Z,99667.00
2022-09-07T03:21:44.563Z,99667.84
2022-09-07T03:24:11.260Z,99673.09
2022-09-07T03:26:44.536Z,99675.78
2022-09-07T03:29:11.192Z,99683.81
2022-09-07T03:31:37.674Z,99683.16
2022-09-07T03:34:04.346Z,99686.22
2022-09-07T03:36:31.320Z,99673.06
2022-09-07T03:38:59.337Z,99670.94
2022-09-07T03:41:26.713Z,99665.16
2022-09-07T03:43:53.283Z,99665.16
2022-09-07T03:46:19.884Z,99667.88
2022-09-07T03:48:47.626Z,99667.03
2022-09-07T03:51:15.138Z,99670.56
2022-09-07T03:53:44.050Z,99669.31
2022-09-07T03:56:13.829Z,99673.53
2022-09-07T03:58:40.442Z,99673.34
2022-09-07T04:01:09.438Z,99668.22
2022-09-07T04:03:36.384Z,99670.19
2022-09-07T04:06:03.697Z,99669.72
2022-09-07T04:08:31.505Z,99674.09
2022-09-07T04:11:02.514Z,99662.81
2022-09-07T04:13:30.031Z,99670.09
2022-09-07T04:15:56.897Z,99661.31
2022-09-07T04:18:23.936Z,99666.16
2022-09-07T04:20:50.868Z,99670.38
2022-09-07T04:23:20.618Z,99667.47
2022-09-07T04:25:51.494Z,99662.91
2022-09-07T04:28:19.484Z,99668.13
2022-09-07T04:30:46.953Z,99680.84
2022-09-07T04:33:14.432Z,99669.22
2022-09-07T04:35:41.892Z,99668.19
2022-09-07T04:38:10.011Z,99670.53
2022-09-07T04:40:36.465Z,99666.53
2022-09-07T04:43:05.450Z,99670.13
2022-09-07T04:45:31.926Z,99660.41
2022-09-07T04:47:58.450Z,99657.16
2022-09-07T04:50:24.911Z,99657.22
2022-09-07T04:52:51.679Z,99654.94
2022-09-07T04:55:18.920Z,99663.91
2022-09-07T04:57:48.997Z,99652.22
2022-09-07T05:00:16.194Z,99653.66
2022-09-07T05:02:42.868Z,99661.53
2022-09-07T05:05:09.613Z,99669.09
2022-09-07T05:07:36.124Z,99662.38
2022-09-07T05:10:02.931Z,99669.16
2022-09-07T05:12:29.425Z,99669.84
2022-09-07T05:14:55.961Z,99680.31
2022-09-07T05:17:22.517Z,99670.84
2022-09-07T05:19:49.057Z,99674.31
2022-09-07T05:22:15.541Z,99674.50
2022-09-07T05:24:42.008Z,99676.06
2022-09-07T05:27:08.644Z,99669.16
2022-09-07T05:32:21.715Z,99657.03
2022-09-07T05:34:50.896Z,99664.22
2022-09-07T05:37:19.009Z,99664.91
2022-09-07T05:39:45.576Z,99656.78
2022-09-07T05:42:12.160Z,99666.41
2022-09-07T05:44:46.018Z,99659.31
2022-09-07T05:47:13.188Z,99659.78
2022-09-07T05:49:40.155Z,99672.38
2022-09-07T05:52:06.832Z,99677.53
2022-09-07T05:54:33.389Z,99675.97
2022-09-07T05:57:00.010Z,99690.66
2022-09-07T05:59:26.600Z,99701.25
2022-09-07T06:01:53.252Z,99685.34
2022-09-07T06:04:19.930Z,99694.81
2022-09-07T06:07:04.683Z,99690.34
2022-09-07T06:09:33.211Z,99690.81
2022-09-07T06:11:59.805Z,99694.09
2022-09-07T06:14:26.251Z,99692.00
2022-09-07T06:16:53.780Z,99718.47
2022-09-07T06:19:20.358Z,99724.53
2022-09-07T06:21:46.947Z,99734.63
2022-09-07T06:24:13.572Z,99728.69
2022-09-07T06:26:40.086Z,99722.63
2022-09-07T06:29:06.778Z,99724.28
2022-09-07T06:31:33.559Z,99736.63
2022-09-07T06:34:00.459Z,99743.34
2022-09-07T06:36:27.864Z,99739.69
2022-09-07T06:38:55.767Z,99751.19
2022-09-07T06:44:11.597Z,99763.56
2022-09-07T06:49:25.301Z,99773.75
2022-09-07T06:51:51.873Z,99766.25
2022-09-07T06:57:08.779Z,99769.06
2022-09-07T06:59:36.125Z,99767.53
2022-09-07T07:02:02.924Z,99760.69
2022-09-07T07:04:29.505Z,99760.81
2022-09-07T07:07:01.061Z,99764.66
2022-09-07T07:09:27.541Z,99762.38
2022-09-07T07:11:54.250Z,99754.94
2022-09-07T07:14:21.197Z,99759.59
2022-09-07T07:16:47.745Z,99755.75
2022-09-07T07:19:14.547Z,99765.75
2022-09-07T07:22:07.760Z,99760.81
2022-09-07T07:24:27.469Z,99762.34
2022-09-07T07:26:54.039Z,99762.91
2022-09-07T07:29:22.777Z,99758.91
2022-09-07T07:31:50.566Z,99761.03
2022-09-07T07:34:17.001Z,99753.50
2022-09-07T07:36:43.541Z,99749.19
2022-09-07T07:41:58.901Z,99749.91
2022-09-07T07:44:28.259Z,99748.34
2022-09-07T07:46:54.737Z,99749.09
2022-09-07T07:49:21.312Z,99741.63
2022-09-07T07:54:36.870Z,99740.50
2022-09-07T07:57:06.947Z,99732.50
2022-09-07T07:59:34.027Z,99728.72
2022-09-07T08:02:05.391Z,99730.66
2022-09-07T08:04:35.447Z,99735.50
2022-09-07T08:07:08.720Z,99729.56
2022-09-07T08:09:37.939Z,99727.09
2022-09-07T08:12:04.408Z,99721.78
2022-09-07T08:14:42.514Z,99727.38
2022-09-07T08:17:10.580Z,99732.16
2022-09-07T08:19:37.570Z,99734.41
2022-09-07T08:22:04.049Z,99743.59
2022-09-07T08:24:31.512Z,99739.09
2022-09-07T08:26:58.498Z,99745.09
2022-09-07T08:29:24.928Z,99748.22
2022-09-07T08:31:51.540Z,99742.19
2022-09-07T08:34:18.049Z,99739.81
2022-09-07T08:36:44.560Z,99738.13
2022-09-07T08:39:11.075Z,99740.75
2022-09-07T08:41:40.709Z,99739.75
2022-09-07T08:44:34.200Z,99730.84
2022-09-07T08:47:15.135Z,99722.06
2022-09-07T08:49:50.738Z,99735.31
2022-09-07T08:52:24.758Z,99729.72
2022-09-07T08:55:00.439Z,99725.09
2022-09-07T08:57:30.833Z,99727.28
2022-09-07T09:00:13.875Z,99728.53
2022-09-07T09:02:44.248Z,99721.84
2022-09-07T09:05:22.643Z,99727.34
2022-09-07T09:07:59.755Z,99723.41
2022-09-07T09:10:53.995Z,99716.41
2022-09-07T09:13:39.117Z,99714.59
2022-09-07T09:16:13.499Z,99712.97
2022-09-07T09:19:02.398Z,99716.44
2022-09-07T09:21:29.029Z,99717.59
2022-09-07T09:24:00.789Z,99714.69
2022-09-07T09:26:31.786Z,99713.25
2022-09-07T09:28:58.697Z,99708.38
2022-09-07T09:31:34.219Z,99713.03
2022-09-07T09:34:15.697Z,99709.25
2022-09-07T09:36:44.187Z,99702.50
2022-09-07T09:39:36.983Z,99698.59
2022-09-07T09:42:17.739Z,99693.69
2022-09-07T09:44:45.439Z,99703.84
2022-09-07T09:47:30.355Z,99705.69
2022-09-07T09:49:59.467Z,99705.44
2022-09-07T09:52:30.204Z,99702.13
2022-09-07T09:55:03.427Z,99694.19
2022-09-07T10:04:00.477Z,99699.25
2022-09-07T10:06:29.350Z,99689.22
2022-09-07T10:09:00.736Z,99697.69
2022-09-07T10:12:05.575Z,99696.50
2022-09-07T10:14:35.575Z,99692.22
2022-09-07T10:17:14.050Z,99692.19
2022-09-07T10:19:42.763Z,99686.50
2022-09-07T10:22:31.509Z,99687.06
2022-09-07T10:24:58.411Z,99686.06
2022-09-07T10:27:37.495Z,99678.47
2022-09-07T10:30:12.424Z,99673.25
2022-09-07T10:32:50.543Z,99682.09
2022-09-07T10:35:43.896Z,99688.97
2022-09-07T10:38:18.720Z,99685.88
2022-09-07T10:41:00.030Z,99689.13
2022-09-07T10:43:46.189Z,99693.41
2022-09-07T10:46:59.618Z,99690.97
2022-09-07T10:52:52.813Z,99685.53
2022-09-07T10:55:28.950Z,99681.03
2022-09-07T10:57:59.684Z,99683.66
2022-09-07T11:00:30.046Z,99674.31
2022-09-07T11:03:28.186Z,99675.81
2022-09-07T11:06:16.021Z,99674.84
2022-09-07T11:12:01.823Z,99675.03
2022-09-07T11:14:32.641Z,99677.53
2022-09-07T11:17:02.067Z,99679.66
2022-09-07T11:19:52.720Z,99677.69
2022-09-07T11:22:32.706Z,99673.59
2022-09-07T11:25:29.457Z,99672.59
2022-09-07T11:27:59.117Z,99674.84
2022-09-07T11:30:31.253Z,99674.41
2022-09-07T11:33:06.205Z,99673.03
2022-09-07T11:35:50.428Z,99669.38
2022-09-07T11:38:56.567Z,99669.56
2022-09-07T11:41:22.941Z,99663.38
2022-09-07T11:44:14.612Z,99660.75
2022-09-07T11:46:43.793Z,99652.00
2022-09-07T11:49:21.726Z,99650.66
2022-09-07T11:51:55.561Z,99652.81
2022-09-07T11:54:32.217Z,99643.81
2022-09-07T11:57:39.307Z,99640.19
2022-09-07T12:00:20.797Z,99643.88
2022-09-07T12:03:25.144Z,99639.22
2022-09-07T12:06:13.265Z,99637.78
2022-09-07T12:08:53.940Z,99640.19
2022-09-07T12:11:29.322Z,99636.81
2022-09-07T12:14:03.990Z,99633.09
2022-09-07T12:16:59.473Z,99622.41
2022-09-07T12:19:27.156Z,99631.16
2022-09-07T12:21:53.638Z,99625.72
2022-09-07T12:24:32.425Z,99605.59
2022-09-07T12:27:03.364Z,99598.84
2022-09-07T12:29:31.413Z,99612.91
2022-09-07T12:32:52.715Z,99622.78
2022-09-07T12:34:50.940Z,99618.72
2022-09-07T12:37:26.706Z,99631.81
2022-09-07T12:40:30.501Z,99638.56
2022-09-07T12:43:12.365Z,99634.13
2022-09-07T12:45:38.825Z,99620.16
2022-09-07T12:48:17.541Z,99609.19
2022-09-07T12:50:56.825Z,99596.34
2022-09-07T12:53:55.535Z,99602.38
2022-09-07T12:56:44.207Z,99617.31
2022-09-07T12:59:31.093Z,99619.94
2022-09-07T13:02:22.985Z,99631.38
2022-09-07T13:05:16.188Z,99623.72
2022-09-07T13:08:08.314Z,99627.19
2022-09-07T13:10:37.349Z,99623.34
2022-09-07T13:13:14.544Z,99616.53
2022-09-07T13:15:51.188Z,99617.69
2022-09-07T13:18:27.232Z,99601.47
2022-09-07T13:21:09.044Z,99606.94
2022-09-07T13:23:35.954Z,99604.78
2022-09-07T13:26:05.042Z,99607.75
2022-09-07T13:28:58.107Z,99605.31
2022-09-07T13:31:43.163Z,99600.22
2022-09-07T13:34:34.588Z,99577.31
2022-09-07T13:37:02.360Z,99564.34
2022-09-07T13:39:29.062Z,99561.81
2022-09-07T13:41:56.882Z,99552.09
2022-09-07T13:44:26.745Z,99548.84
2022-09-07T13:47:02.915Z,99552.56
2022-09-07T13:49:56.027Z,99559.75
2022-09-07T13:52:52.846Z,99563.81
2022-09-07T13:55:26.852Z,99580.28
2022-09-07T13:58:08.838Z,99589.78
2022-09-07T14:00:35.215Z,99588.63
2022-09-07T14:03:06.921Z,99597.19
2022-09-07T14:05:33.416Z,99588.63
2022-09-07T14:07:59.782Z,99596.38
2022-09-07T14:10:26.652Z,99589.22
2022-09-07T14:13:11.465Z,99578.66
2022-09-07T14:15:41.552Z,99575.91
2022-09-07T14:18:16.433Z,99578.09
2022-09-07T14:21:01.389Z,99579.56
2022-09-07T14:23:30.389Z,99568.44
2022-09-07T14:26:19.744Z,99565.97
2022-09-07T14:28:48.727Z,99571.72
2022-09-07T14:31:17.534Z,99574.38
2022-09-07T14:33:55.240Z,99574.09
2022-09-07T14:36:44.034Z,99568.91
2022-09-07T14:39:12.387Z,99563.09
2022-09-07T14:41:40.606Z,99558.22
2022-09-07T14:44:06.916Z,99570.34
2022-09-07T14:46:34.141Z,99575.53
2022-09-07T14:49:04.299Z,99579.63
2022-09-07T14:51:36.053Z,99595.81
2022-09-07T14:54:05.636Z,99590.34
2022-09-07T14:56:41.547Z,99594.41
2022-09-07T14:59:28.691Z,99588.91
2022-09-07T15:02:26.951Z,99582.59
2022-09-07T15:05:17.947Z,99573.66
2022-09-07T15:07:53.283Z,99565.84
2022-09-07T15:10:23.716Z,99561.63
2022-09-07T15:13:01.373Z,99568.81
2022-09-07T15:15:31.955Z,99552.84
2022-09-07T15:18:07.450Z,99550.00
2022-09-07T15:20:40.841Z,99551.94
2022-09-07T15:23:13.049Z,99552.13
2022-09-07T15:25:41.009Z,99546.03
2022-09-07T15:28:07.907Z,99536.06
2022-09-07T15:30:34.717Z,99536.88
2022-09-07T15:33:02.587Z,99528.47
2022-09-07T15:35:29.028Z,99538.03
2022-09-07T15:38:04.596Z,99530.91
2022-09-07T15:40:47.496Z,99525.56
2022-09-07T15:43:26.772Z,99520.44
2022-09-07T15:45:54.734Z,99506.91
2022-09-07T15:48:25.244Z,99504.84
2022-09-07T15:50:54.003Z,99502.44
2022-09-07T15:56:11.198Z,99508.38
2022-09-07T15:58:37.686Z,99510.59
2022-09-07T16:03:54.852Z,99505.38
2022-09-07T16:06:24.034Z,99504.84
2022-09-07T16:08:51.834Z,99504.44
2022-09-07T16:11:24.331Z,99506.22
2022-09-07T16:14:01.581Z,99502.47
2022-09-07T16:19:20.613Z,99495.50
2022-09-07T16:21:47.182Z,99496.97
2022-09-07T16:24:13.562Z,99495.47
2022-09-07T16:26:40.630Z,99498.91
2022-09-07T16:29:06.988Z,99497.78
2022-09-07T16:31:33.641Z,99501.00
2022-09-07T16:34:02.107Z,99510.84
2022-09-07T16:36:30.436Z,99522.78
2022-09-07T16:38:59.657Z,99523.59
2022-09-07T16:41:29.166Z,99521.38
2022-09-07T16:43:56.045Z,99531.16
2022-09-07T16:46:25.123Z,99538.78
2022-09-07T16:48:51.942Z,99530.66
2022-09-07T16:51:21.217Z,99531.38
2022-09-07T16:53:51.592Z,99530.72
2022-09-07T16:56:22.785Z,99530.75
2022-09-07T16:58:51.302Z,99525.59
2022-09-07T17:01:19.997Z,99516.63
2022-09-07T17:03:46.954Z,99507.38
2022-09-07T17:06:14.136Z,99493.75
2022-09-07T17:08:41.148Z,99485.19
2022-09-07T17:11:16.509Z,99473.75
2022-09-07T17:13:43.826Z,99469.72
2022-09-07T17:16:14.945Z,99473.75
2022-09-07T17:21:30.067Z,99467.16
2022-09-07T17:23:56.478Z,99469.66
2022-09-07T17:26:26.636Z,99468.31
2022-09-07T17:28:59.751Z,99475.88
2022-09-07T17:34:15.929Z,99494.97
2022-09-07T17:39:18.013Z,99491.56
2022-09-07T17:41:47.914Z,99498.50
2022-09-07T17:44:14.443Z,99503.88
2022-09-07T17:46:40.903Z,99502.97
2022-09-07T17:49:12.091Z,99507.56
2022-09-07T17:51:39.804Z,99502.84
2022-09-07T17:54:11.190Z,99509.53
2022-09-07T17:56:39.041Z,99517.81
2022-09-07T18:01:55.663Z,99526.88
2022-09-07T18:04:23.841Z,99523.41
2022-09-07T18:06:51.149Z,99516.38
2022-09-07T18:09:19.498Z,99522.25
2022-09-07T18:11:47.729Z,99515.50
2022-09-07T18:14:15.492Z,99512.88
2022-09-07T18:16:45.838Z,99506.44
2022-09-07T18:19:13.282Z,99500.03
2022-09-07T18:21:41.964Z,99506.59
2022-09-07T18:24:19.659Z,99502.91
2022-09-07T18:26:52.200Z,99513.97
2022-09-07T18:29:37.563Z,99506.50
2022-09-07T18:32:08.459Z,99503.88
2022-09-07T18:34:38.258Z,99518.19
2022-09-07T18:37:07.450Z,99519.69
2022-09-07T18:39:36.976Z,99520.28
2022-09-07T18:42:04.170Z,99519.47
2022-09-07T18:47:29.898Z,99520.22
2022-09-07T18:49:57.532Z,99515.06
2022-09-07T18:55:16.949Z,99516.34
2022-09-07T18:57:43.751Z,99499.66
2022-09-07T19:00:11.927Z,99488.38
2022-09-07T19:02:38.683Z,99493.13
2022-09-07T19:07:53.618Z,99495.38
2022-09-07T19:10:22.889Z,99479.69
2022-09-07T19:12:49.452Z,99480.63
2022-09-07T19:15:21.024Z,99472.44
2022-09-07T19:17:49.305Z,99457.88
2022-09-07T19:20:15.881Z,99455.88
2022-09-07T19:22:43.667Z,99448.97
2022-09-07T19:25:11.653Z,99449.78
2022-09-07T19:27:40.351Z,99444.44
2022-09-07T19:30:07.515Z,99454.84
2022-09-07T19:32:40.391Z,99457.69
2022-09-07T19:35:07.173Z,99461.59
2022-09-07T19:37:33.540Z,99464.28
2022-09-07T19:40:00.589Z,99461.91
2022-09-07T19:42:27.340Z,99456.31
2022-09-07T19:44:54.313Z,99470.34
2022-09-07T19:47:21.537Z,99471.84
2022-09-07T19:49:49.174Z,99464.66
2022-09-07T19:52:15.554Z,99453.31
2022-09-07T19:54:42.253Z,99448.13
2022-09-07T19:57:08.697Z,99434.34
2022-09-07T19:59:35.144Z,99433.72
2022-09-07T20:02:01.762Z,99421.34
2022-09-07T20:04:28.732Z,99432.13
2022-09-07T20:06:55.186Z,99436.53
2022-09-07T20:09:25.956Z,99440.56
2022-09-07T20:11:52.451Z,99444.28
2022-09-07T20:14:19.166Z,99452.78
2022-09-07T20:16:45.877Z,99440.31
2022-09-07T20:19:14.770Z,99437.53
2022-09-07T20:21:42.410Z,99431.69
2022-09-07T20:24:11.251Z,99427.75
2022-09-07T20:26:37.698Z,99425.94
2022-09-07T20:29:26.714Z,99419.25
2022-09-07T20:31:52.520Z,99412.88
2022-09-07T20:34:19.053Z,99419.63
2022-09-07T20:36:45.391Z,99418.06
2022-09-07T20:39:21.633Z,99419.56
2022-09-07T20:41:48.055Z,99413.34
2022-09-07T20:44:14.660Z,99416.34
2022-09-07T20:46:41.411Z,99405.03
2022-09-07T20:49:08.087Z,99406.47
2022-09-07T20:51:35.204Z,99400.81
2022-09-07T20:54:01.631Z,99395.63
2022-09-07T20:56:30.737Z,99395.88
2022-09-07T20:59:02.157Z,99403.34
2022-09-07T21:01:30.107Z,99393.09
2022-09-07T21:03:58.317Z,99402.03
2022-09-07T21:06:28.522Z,99402.13
2022-09-07T21:08:56.860Z,99406.81
2022-09-07T21:11:25.881Z,99409.53
2022-09-07T21:14:06.386Z,99395.41
2022-09-07T21:16:34.047Z,99391.69
2022-09-07T21:19:03.846Z,99392.47
2022-09-07T21:21:38.973Z,99390.22
2022-09-07T21:24:14.913Z,99395.75
2022-09-07T21:26:42.333Z,99390.59
2022-09-07T21:29:13.923Z,99381.75
2022-09-07T21:31:40.385Z,99377.78
2022-09-07T21:34:06.899Z,99377.63
2022-09-07T21:36:34.297Z,99377.22
2022-09-07T21:39:00.899Z,99377.44
2022-09-07T21:41:27.529Z,99384.19
2022-09-07T21:43:58.407Z,99390.91
2022-09-07T21:46:25.911Z,99393.06
2022-09-07T21:48:52.753Z,99377.34
2022-09-07T21:51:19.269Z,99378.25
2022-09-07T21:53:54.397Z,99366.53
2022-09-07T21:56:21.044Z,99368.66
2022-09-07T21:58:48.397Z,99367.25
2022-09-07T22:01:17.376Z,99368.91
2022-09-07T22:03:48.253Z,99361.00
2022-09-07T22:06:15.303Z,99363.72
2022-09-07T22:08:42.683Z,99364.38
2022-09-07T22:11:14.739Z,99363.97
2022-09-07T22:13:43.343Z,99354.00
2022-09-07T22:16:10.147Z,99347.44
2022-09-07T22:18:37.883Z,99353.16
2022-09-07T22:21:06.947Z,99352.31
2022-09-07T22:23:35.293Z,99350.44
2022-09-07T22:26:02.101Z,99341.41
2022-09-07T22:28:30.091Z,99339.78
2022-09-07T22:30:57.267Z,99337.72
2022-09-07T22:33:23.932Z,99342.19
2022-09-07T22:35:50.649Z,99342.41
2022-09-07T22:38:24.011Z,99336.34
2022-09-07T22:40:50.341Z,99341.78
2022-09-07T22:43:16.758Z,99344.72
2022-09-07T22:45:43.457Z,99340.38
2022-09-07T22:48:09.841Z,99334.69
2022-09-07T22:50:36.285Z,99331.78
2022-09-07T22:53:02.707Z,99327.88
2022-09-07T22:55:29.594Z,99320.53
2022-09-07T22:57:55.966Z,99318.25
2022-09-07T23:00:22.409Z,99326.00
2022-09-07T23:02:49.034Z,99317.63
2022-09-07T23:05:15.457Z,99320.13
2022-09-07T23:07:42.148Z,99323.91
2022-09-07T23:10:09.131Z,99321.19
2022-09-07T23:12:35.574Z,99328.09
2022-09-07T23:15:02.603Z,99313.06
2022-09-07T23:17:29.776Z,99318.97
2022-09-07T23:19:56.294Z,99310.00
2022-09-07T23:22:32.133Z,99311.41
2022-09-07T23:24:59.270Z,99318.50
2022-09-07T23:27:27.066Z,99311.81
2022-09-07T23:29:54.289Z,99313.88
2022-09-07T23:32:20.805Z,99309.75
2022-09-07T23:34:49.553Z,99310.19
2022-09-07T23:37:16.084Z,99319.19
2022-09-07T23:39:44.599Z,99315.44
2022-09-07T23:42:11.034Z,99311.91
2022-09-07T23:44:37.538Z,99315.66
2022-09-07T23:47:04.701Z,99311.03
2022-09-07T23:49:31.254Z,99308.53
2022-09-07T23:51:57.834Z,99306.84
2022-09-07T23:54:24.538Z,99308.09
2022-09-07T23:56:51.016Z,99305.38
2022-09-07T23:59:17.505Z,99300.13
